| time (UTC) | temp F | wind direction | speed MPH | gust MPH | rain 1hr in | rain 24hr in | rain mn in | humidity % | barometer mb |
| 20260510033029 | 77 | 123 | 1.0 | 3.0 | 0.00 | 0.02 | 0.02 | 62 | 1010.2 |
| 20260510031529 | 77 | 119 | 2.0 | 4.0 | 0.00 | 0.02 | 0.02 | 61 | 1010.1 |
| 20260510030028 | 77 | 124 | 4.0 | 9.0 | 0.00 | 0.02 | 0.02 | 60 | 1010.0 |
| 20260510024529 | 77 | 119 | 3.0 | 7.0 | 0.00 | 0.02 | 0.02 | 60 | 1009.6 |
| 20260510023030 | 77 | 76 | 2.0 | 3.0 | 0.00 | 0.02 | 0.02 | 60 | 1009.4 |
| 20260510021530 | 77 | 71 | 2.0 | 4.0 | 0.00 | 0.02 | 0.02 | 59 | 1009.4 |
| 20260510020026 | 78 | 69 | 1.0 | 2.0 | 0.00 | 0.02 | 0.02 | 59 | 1009.0 |
| 20260510014526 | 79 | 69 | 2.0 | 3.0 | 0.00 | 0.02 | 0.02 | 57 | 1008.8 |
| 20260510013025 | 80 | 69 | 0.0 | 2.0 | 0.00 | 0.02 | 0.02 | 55 | 1008.5 |
| 20260510011524 | 81 | 69 | 0.0 | 2.0 | 0.00 | 0.02 | 0.02 | 54 | 1008.3 |
| 20260510010024 | 81 | 69 | 3.0 | 9.0 | 0.00 | 0.02 | 0.02 | 52 | 1008.5 |
| 20260510004523 | 84 | 43 | 6.0 | 9.0 | 0.00 | 0.02 | 0.02 | 49 | 1008.6 |
| 20260510003022 | 88 | 116 | 2.0 | 4.0 | 0.00 | 0.02 | 0.02 | 49 | 1008.5 |
| 20260510001522 | 89 | 116 | 1.0 | 7.0 | 0.00 | 0.02 | 0.02 | 47 | 1008.4 |
| 20260510000025 | 91 | 126 | 2.0 | 7.0 | 0.00 | 0.02 | 0.02 | 45 | 1008.4 |
| 20260509234535 | 92 | 202 | 0.0 | 4.0 | 0.00 | 0.02 | 0.02 | 41 | 1008.1 |
| 20260509233020 | 93 | 203 | 3.0 | 6.0 | 0.00 | 0.02 | 0.02 | 40 | 1007.9 |
| 20260509231521 | 93 | 207 | 0.0 | 4.0 | 0.00 | 0.02 | 0.02 | 40 | 1008.0 |
| 20260509230020 | 92 | 208 | 0.0 | 3.0 | 0.00 | 0.02 | 0.02 | 40 | 1007.9 |
| 20260509224529 | 92 | 194 | 0.0 | 5.0 | 0.00 | 0.02 | 0.02 | 41 | 1007.9 |
| 20260509223017 | 93 | 205 | 2.0 | 5.0 | 0.00 | 0.02 | 0.02 | 42 | 1008.0 |
| 20260509221517 | 93 | 184 | 1.0 | 4.0 | 0.00 | 0.02 | 0.02 | 44 | 1007.7 |
| 20260509220015 | 93 | 199 | 0.0 | 2.0 | 0.00 | 0.02 | 0.02 | 45 | 1007.6 |
| 20260509214511 | 93 | 183 | 0.0 | 4.0 | 0.00 | 0.02 | 0.02 | 46 | 1007.6 |
| 20260509213007 | 92 | 205 | 2.0 | 5.0 | 0.00 | 0.02 | 0.02 | 49 | 1007.9 |
| 20260509211508 | 91 | 103 | 2.0 | 7.0 | 0.00 | 0.02 | 0.02 | 48 | 1008.3 |
| 20260509210001 | 90 | 304 | 3.0 | 10.0 | 0.00 | 0.02 | 0.02 | 49 | 1008.5 |
| 20260509204607 | 91 | 295 | 1.0 | 5.0 | 0.00 | 0.02 | 0.02 | 49 | 1008.6 |
| 20260509203105 | 90 | 306 | 1.0 | 5.0 | 0.00 | 0.02 | 0.02 | 49 | 1008.9 |
| 20260509201552 | 89 | 280 | 2.0 | 8.0 | 0.00 | 0.02 | 0.02 | 49 | 1008.7 |
| 20260509200049 | 88 | 304 | 2.0 | 12.0 | 0.00 | 0.02 | 0.02 | 50 | 1008.9 |
| 20260509194546 | 88 | 305 | 3.0 | 8.0 | 0.00 | 0.02 | 0.02 | 54 | 1009.1 |
| 20260509193041 | 87 | 230 | 3.0 | 13.0 | 0.00 | 0.02 | 0.02 | 56 | 1009.4 |
| 20260509191543 | 87 | 291 | 6.0 | 10.0 | 0.00 | 0.02 | 0.02 | 58 | 1009.4 |
| 20260509190036 | 86 | 291 | 3.0 | 11.0 | 0.00 | 0.02 | 0.02 | 60 | 1009.7 |
| 20260509184543 | 86 | 297 | 6.0 | 10.0 | 0.00 | 0.02 | 0.02 | 61 | 1009.7 |
| 20260509183031 | 85 | 292 | 3.0 | 8.0 | 0.00 | 0.02 | 0.02 | 62 | 1009.9 |
| 20260509181529 | 84 | 231 | 2.0 | 7.0 | 0.00 | 0.02 | 0.02 | 62 | 1010.2 |
| 20260509180044 | 84 | 245 | 2.0 | 4.0 | 0.00 | 0.02 | 0.02 | 62 | 1010.6 |
| 20260509174529 | 83 | 248 | 2.0 | 5.0 | 0.00 | 0.02 | 0.02 | 63 | 1010.8 |
| 20260509173022 | 82 | 311 | 0.0 | 9.0 | 0.00 | 0.02 | 0.02 | 66 | 1011.0 |
| 20260509171520 | 82 | 263 | 3.0 | 7.0 | 0.00 | 0.02 | 0.02 | 71 | 1011.1 |
| 20260509170028 | 80 | 200 | 2.0 | 6.0 | 0.00 | 0.02 | 0.02 | 77 | 1011.2 |
| 20260509164513 | 78 | 215 | 1.0 | 4.0 | 0.00 | 0.02 | 0.02 | 80 | 1011.1 |
| 20260509163008 | 77 | 234 | 2.0 | 4.0 | 0.00 | 0.02 | 0.02 | 80 | 1011.0 |
| 20260509161506 | 76 | 266 | 3.0 | 7.0 | 0.00 | 0.02 | 0.02 | 80 | 1010.8 |
| 20260509160005 | 75 | 341 | 3.0 | 5.0 | 0.00 | 0.02 | 0.02 | 81 | 1010.9 |
| 20260509154505 | 75 | 327 | 4.0 | 5.0 | 0.00 | 0.02 | 0.02 | 80 | 1011.2 |
| 20260509153002 | 75 | 51 | 2.0 | 6.0 | 0.00 | 0.02 | 0.02 | 80 | 1010.4 |
| 20260509151500 | 75 | 91 | 2.0 | 5.0 | 0.00 | 0.02 | 0.02 | 80 | 1010.3 |
| 20260509150100 | 75 | 242 | 0.0 | 3.0 | 0.00 | 0.02 | 0.02 | 80 | 1011.0 |
| 20260509144557 | 74 | 242 | 1.0 | 3.0 | 0.00 | 0.02 | 0.02 | 81 | 1011.1 |
| 20260509143107 | 74 | 216 | 1.0 | 5.0 | 0.00 | 0.02 | 0.02 | 80 | 1010.9 |
| 20260509141555 | 74 | 228 | 4.0 | 6.0 | 0.00 | 0.02 | 0.02 | 80 | 1010.6 |
| 20260509140053 | 74 | 171 | 2.0 | 4.0 | 0.00 | 0.02 | 0.02 | 80 | 1010.6 |
| 20260509134554 | 74 | 57 | 1.0 | 3.0 | 0.00 | 0.02 | 0.02 | 80 | 1010.0 |
| 20260509133104 | 74 | 67 | 4.0 | 8.0 | 0.00 | 0.02 | 0.02 | 80 | 1009.9 |
| 20260509131552 | 74 | 103 | 2.0 | 4.0 | 0.02 | 0.02 | 0.02 | 80 | 1010.5 |
| 20260509130051 | 74 | 14 | 0.0 | 2.0 | 0.02 | 0.02 | 0.02 | 80 | 1011.5 |
| 20260509124551 | 73 | 13 | 2.0 | 4.0 | 0.02 | 0.02 | 0.02 | 79 | 1011.4 |
| 20260509123051 | 73 | 148 | 3.0 | 5.0 | 0.02 | 0.02 | 0.02 | 79 | 1011.0 |
| 20260509121552 | 73 | 65 | 2.0 | 3.0 | 0.00 | 0.00 | 0.00 | 79 | 1011.2 |
| 20260509120048 | 73 | 65 | 1.0 | 4.0 | 0.00 | 0.00 | 0.00 | 79 | 1011.2 |
| 20260509114546 | 73 | 65 | 2.0 | 4.0 | 0.00 | 0.00 | 0.00 | 78 | 1010.9 |
| 20260509113045 | 73 | 49 | 3.0 | 5.0 | 0.00 | 0.00 | 0.00 | 78 | 1010.5 |
| 20260509111544 | 73 | 51 | 1.0 | 4.0 | 0.00 | 0.00 | 0.00 | 78 | 1010.0 |
| 20260509110046 | 73 | 76 | 0.0 | 4.0 | 0.00 | 0.00 | 0.00 | 77 | 1009.9 |
| 20260509104600 | 73 | 48 | 0.0 | 2.0 | 0.00 | 0.00 | 0.00 | 77 | 1010.4 |
| 20260509103043 | 73 | 79 | 1.0 | 4.0 | 0.00 | 0.00 | 0.00 | 77 | 1010.5 |
| 20260509101542 | 73 | 46 | 3.0 | 5.0 | 0.00 | 0.00 | 0.00 | 76 | 1010.6 |
| 20260509100041 | 73 | 305 | 5.0 | 6.0 | 0.00 | 0.00 | 0.00 | 76 | 1010.6 |
| 20260509094542 | 73 | 56 | 3.0 | 5.0 | 0.00 | 0.00 | 0.00 | 75 | 1009.7 |
| 20260509093040 | 73 | 90 | 2.0 | 6.0 | 0.00 | 0.00 | 0.00 | 75 | 1009.0 |
| 20260509091542 | 73 | 159 | 1.0 | 2.0 | 0.00 | 0.00 | 0.00 | 75 | 1009.7 |
| 20260509090048 | 73 | 159 | 0.0 | 3.0 | 0.00 | 0.00 | 0.00 | 74 | 1009.9 |
| 20260509084538 | 73 | 150 | 3.0 | 7.0 | 0.00 | 0.00 | 0.00 | 74 | 1009.4 |
| 20260509083034 | 73 | 178 | 4.0 | 10.0 | 0.00 | 0.00 | 0.00 | 74 | 1009.7 |
| 20260509081547 | 73 | 139 | 3.0 | 7.0 | 0.00 | 0.00 | 0.00 | 73 | 1009.7 |
| 20260509080034 | 73 | 126 | 3.0 | 7.0 | 0.00 | 0.00 | 0.00 | 73 | 1009.8 |
| 20260509074531 | 73 | 136 | 4.0 | 8.0 | 0.00 | 0.00 | 0.00 | 73 | 1009.9 |
| 20260509073042 | 73 | 155 | 3.0 | 8.0 | 0.00 | 0.00 | 0.00 | 72 | 1010.1 |
| 20260509071538 | 73 | 148 | 2.0 | 7.0 | 0.00 | 0.00 | 0.00 | 72 | 1010.0 |
| 20260509070038 | 73 | 147 | 0.0 | 4.0 | 0.00 | 0.00 | 0.00 | 72 | 1010.0 |
| 20260509064527 | 73 | 165 | 4.0 | 6.0 | 0.00 | 0.00 | 0.00 | 72 | 1010.1 |
| 20260509063050 | 73 | 147 | 4.0 | 8.0 | 0.00 | 0.00 | 0.00 | 72 | 1009.9 |
| 20260509061534 | 73 | 144 | 4.0 | 8.0 | 0.00 | 0.00 | 0.00 | 71 | 1010.1 |
| 20260509060021 | 73 | 150 | 3.0 | 5.0 | 0.00 | 0.00 | 0.00 | 71 | 1010.5 |
| 20260509054516 | 73 | 142 | 2.0 | 7.0 | 0.00 | 0.00 | 0.00 | 71 | 1010.9 |
| 20260509053020 | 73 | 148 | 2.0 | 5.0 | 0.00 | 0.00 | 0.00 | 71 | 1011.0 |
| 20260509051515 | 73 | 141 | 2.0 | 8.0 | 0.00 | 0.00 | 0.00 | 71 | 1011.1 |
| 20260509050014 | 73 | 140 | 2.0 | 7.0 | 0.00 | 0.00 | 0.00 | 71 | 1010.9 |
| 20260509044514 | 73 | 128 | 3.0 | 7.0 | 0.00 | 0.00 | 0.00 | 71 | 1010.3 |
| 20260509043012 | 73 | 139 | 3.0 | 9.0 | 0.00 | 0.00 | 0.00 | 71 | 1010.4 |
| 20260509041512 | 74 | 123 | 5.0 | 9.0 | 0.00 | 0.00 | 0.00 | 71 | 1010.2 |
| 20260509040011 | 74 | 126 | 3.0 | 7.0 | 0.00 | 0.00 | 0.00 | 71 | 1010.3 |
| 20260509034512 | 74 | 125 | 3.0 | 9.0 | 0.00 | 0.00 | 0.00 | 71 | 1010.0 |